Honolulu, HI (96815)

5:05 AM HST on January 17, 2017 (GMT -1000)
Saint Louis Heights | | Change Station

Elev 340 ft 21.30 °N, 157.81 °W | Updated 7 seconds ago

Partly Cloudy
Partly Cloudy
71.2 °F
Feels Like 73 °F
N
0.0
Wind Variable Wind from NW
Gusts 0.0 mph

Today
High -- | Low -- °F
--% Chance of Precip.
Yesterday
High -- | Low -- °F
Precip. -- in
Pressure 30.03 in
Visibility 10.0 miles
Clouds Few 2900 ft
Scattered Clouds 3600 ft
Mostly Cloudy 4600 ft
Heat Index 73 °F
Dew Point 64 °F
Humidity 77%
Rainfall 0.00 in
Snow Depth Not available.
7:11 AM 6:12 PM
Waning Gibbous, 72% visible
METAR PHNL 171453Z 36005KT 10SM FEW029 SCT036 BKN046 22/16 A3003 RMK AO2 SLP168 T02170161 55007
Pressure 30.03 in
Visibility 10.0 miles
Clouds Few 2900 ft
Scattered Clouds 3600 ft
Mostly Cloudy 4600 ft
Heat Index 73 °F
Dew Point 64 °F
Humidity 77%
Rainfall 0.00 in
Snow Depth Not available.
7:11 AM 6:12 PM
Waning Gibbous, 72% visible
METAR PHNL 171453Z 36005KT 10SM FEW029 SCT036 BKN046 22/16 A3003 RMK AO2 SLP168 T02170161 55007

Get Your Daily Forecast Email!

Thanks for signing up!

Be on the lookout for a verification email in your inbox.

You'll start receiving the daily forecast at 8 AM.

×

10-Day Weather Forecast

Almanac

Astronomy

Jan. 17, 2017 Rise Set
Actual Time
Civil Twilight
Nautical Twilight
Astronomical Twilight
Moon
Length of Visible Light
Length of Day
Tomorrow will be .
, % of the Moon is Illuminated

Today's Extremes

State Highs State Lows

Community

WunderPhotos

Upload Photos

1,962,540 photos uploaded!

WunderBlog® & News

Nearby

Air Quality

  Air Quality AQ Index Pollutant
Not available.

Snow Depth

Station Depth Elevation

Earthquake Activity

City Distance Mag. Time & Date
Minimum magnitude displayed is 2.5.

Coastal Water Temperatures

Place Temperature

Stations

Nearby Weather Stations

Station Location Temp. Windchill Dew Point Humidity Wind Precip. Elev Updated Type
                   

Watches & Warnings

There are currently no watches in effect.